sensor_id;sensor_type;location;lat;lon;timestamp;pressure;altitude;pressure_sealevel;temperature;humidity
57799;BME280;43626;53.866;30.298;2023-07-31T00:00:25;1016.2;;;19.1;70.5
57799;BME280;43626;53.866;30.298;2023-07-31T00:05:39;1016.2;;;19.1;70.8
57799;BME280;43626;53.866;30.298;2023-07-31T00:11:03;1016.2;;;19;70.6
57799;BME280;43626;53.866;30.298;2023-07-31T00:15:33;1016.2;;;19;70.4
57799;BME280;43626;53.866;30.298;2023-07-31T00:20:37;1016.2;;;19;70.5
57799;BME280;43626;53.866;30.298;2023-07-31T00:26:03;1016.2;;;19;70.3
57799;BME280;43626;53.866;30.298;2023-07-31T00:30:41;1016.2;;;18.9;70.1
57799;BME280;43626;53.866;30.298;2023-07-31T00:35:25;1016.2;;;18.9;70.1
57799;BME280;43626;53.866;30.298;2023-07-31T00:40:19;1016.1;;;18.9;70.1
57799;BME280;43626;53.866;30.298;2023-07-31T00:46:03;1016.1;;;18.9;70.2
57799;BME280;43626;53.866;30.298;2023-07-31T00:50:53;1016.1;;;18.9;70.3
57799;BME280;43626;53.866;30.298;2023-07-31T00:55:37;1016.1;;;18.9;70.4
57799;BME280;43626;53.866;30.298;2023-07-31T01:00:19;1016;;;18.9;70.6
57799;BME280;43626;53.866;30.298;2023-07-31T01:06:04;1016;;;18.9;70.6
57799;BME280;43626;53.866;30.298;2023-07-31T01:10:20;1016;;;18.9;70.6
57799;BME280;43626;53.866;30.298;2023-07-31T01:15:19;1016;;;18.9;70.5
57799;BME280;43626;53.866;30.298;2023-07-31T01:20:51;1016;;;18.9;70.3
57799;BME280;43626;53.866;30.298;2023-07-31T01:26:03;1016;;;18.8;69.9
57799;BME280;43626;53.866;30.298;2023-07-31T01:31:03;1016;;;18.8;69.8
57799;BME280;43626;53.866;30.298;2023-07-31T01:35:53;1016;;;18.8;69.7
57799;BME280;43626;53.866;30.298;2023-07-31T01:40:19;1016;;;18.8;69.7
57799;BME280;43626;53.866;30.298;2023-07-31T01:45:19;1015.9;;;18.8;69.8
57799;BME280;43626;53.866;30.298;2023-07-31T01:51:03;1015.9;;;18.8;69.8
57799;BME280;43626;53.866;30.298;2023-07-31T01:55:41;1015.8;;;18.8;70.2
57799;BME280;43626;53.866;30.298;2023-07-31T02:00:53;1015.8;;;18.8;70.3
57799;BME280;43626;53.866;30.298;2023-07-31T02:06:03;1015.9;;;18.7;70.1
57799;BME280;43626;53.866;30.298;2023-07-31T02:10:49;1015.9;;;18.7;70.2
57799;BME280;43626;53.866;30.298;2023-07-31T02:15:19;1015.9;;;18.7;70.2
57799;BME280;43626;53.866;30.298;2023-07-31T02:20:19;1016;;;18.6;70.2
57799;BME280;43626;53.866;30.298;2023-07-31T02:26:03;1016;;;18.6;70.2
57799;BME280;43626;53.866;30.298;2023-07-31T02:31:03;1016;;;18.6;70.2
57799;BME280;43626;53.866;30.298;2023-07-31T02:36:03;1016;;;18.6;70.1
57799;BME280;43626;53.866;30.298;2023-07-31T02:40:41;1016;;;18.6;70.1
57799;BME280;43626;53.866;30.298;2023-07-31T02:45:50;1016;;;18.6;69.8
57799;BME280;43626;53.866;30.298;2023-07-31T02:50:25;1016;;;18.6;69.7
57799;BME280;43626;53.866;30.298;2023-07-31T02:55:49;1016;;;18.6;69.8
57799;BME280;43626;53.866;30.298;2023-07-31T03:01:03;1016;;;18.6;70
57799;BME280;43626;53.866;30.298;2023-07-31T03:05:47;1015.9;;;18.6;70.2
57799;BME280;43626;53.866;30.298;2023-07-31T03:10:37;1015.9;;;18.7;70.2
57799;BME280;43626;53.866;30.298;2023-07-31T03:16:03;1016;;;18.7;70.3
57799;BME280;43626;53.866;30.298;2023-07-31T03:20:31;1016;;;18.8;70.2
57799;BME280;43626;53.866;30.298;2023-07-31T03:25:19;1016;;;18.9;70.1
57799;BME280;43626;53.866;30.298;2023-07-31T03:30:27;1016.1;;;18.9;70.1
57799;BME280;43626;53.866;30.298;2023-07-31T03:35:47;1016.1;;;18.9;70.2
57799;BME280;43626;53.866;30.298;2023-07-31T03:40:47;1016.1;;;18.9;70.3
57799;BME280;43626;53.866;30.298;2023-07-31T03:45:49;1016.2;;;19;70.2
57799;BME280;43626;53.866;30.298;2023-07-31T03:50:39;1016.2;;;19;70
57799;BME280;43626;53.866;30.298;2023-07-31T03:55:25;1016.2;;;19;69.8
57799;BME280;43626;53.866;30.298;2023-07-31T04:00:47;1016.2;;;19.1;69.5
57799;BME280;43626;53.866;30.298;2023-07-31T04:05:33;1016.2;;;19.3;69.2
57799;BME280;43626;53.866;30.298;2023-07-31T04:10:19;1016.2;;;19.5;68.9
57799;BME280;43626;53.866;30.298;2023-07-31T04:15:21;1016.2;;;19.6;68.5
57799;BME280;43626;53.866;30.298;2023-07-31T04:21:03;1016.2;;;19.7;68.3
57799;BME280;43626;53.866;30.298;2023-07-31T04:25:27;1016.3;;;19.8;68.3
57799;BME280;43626;53.866;30.298;2023-07-31T04:30:25;1016.3;;;19.9;68.1
57799;BME280;43626;53.866;30.298;2023-07-31T04:36:03;1016.3;;;20;67.7
57799;BME280;43626;53.866;30.298;2023-07-31T04:40:33;1016.3;;;20.1;67.7
57799;BME280;43626;53.866;30.298;2023-07-31T04:45:33;1016.3;;;20.2;67.5
57799;BME280;43626;53.866;30.298;2023-07-31T04:50:39;1016.3;;;20.2;67.2
57799;BME280;43626;53.866;30.298;2023-07-31T04:55:53;1016.3;;;20.3;66.6
57799;BME280;43626;53.866;30.298;2023-07-31T05:00:19;1016.2;;;20.3;66.3
57799;BME280;43626;53.866;30.298;2023-07-31T05:05:23;1016.3;;;20.3;66.1
57799;BME280;43626;53.866;30.298;2023-07-31T05:11:01;1016.3;;;20.4;66.2
57799;BME280;43626;53.866;30.298;2023-07-31T05:15:51;1016.3;;;20.5;65.8
57799;BME280;43626;53.866;30.298;2023-07-31T05:20:35;1016.3;;;20.6;65.2
57799;BME280;43626;53.866;30.298;2023-07-31T05:26:03;1016.3;;;20.7;65
57799;BME280;43626;53.866;30.298;2023-07-31T05:31:01;1016.3;;;20.8;64.7
57799;BME280;43626;53.866;30.298;2023-07-31T05:35:23;1016.3;;;21;64.1
57799;BME280;43626;53.866;30.298;2023-07-31T05:40:25;1016.3;;;21.1;63.4
57799;BME280;43626;53.866;30.298;2023-07-31T05:45:33;1016.3;;;21.2;62.6
57799;BME280;43626;53.866;30.298;2023-07-31T05:50:49;1016.4;;;21.1;62
57799;BME280;43626;53.866;30.298;2023-07-31T05:56:01;1016.4;;;21.2;61.9
57799;BME280;43626;53.866;30.298;2023-07-31T06:00:37;1016.3;;;21.2;61.7
57799;BME280;43626;53.866;30.298;2023-07-31T06:05:23;1016.3;;;21.3;61.7
57799;BME280;43626;53.866;30.298;2023-07-31T06:10:31;1016.3;;;21.4;61.8
57799;BME280;43626;53.866;30.298;2023-07-31T06:16:01;1016.3;;;21.5;62.3
57799;BME280;43626;53.866;30.298;2023-07-31T06:20:47;1016.4;;;21.6;62
57799;BME280;43626;53.866;30.298;2023-07-31T06:25:47;1016.4;;;21.8;61.4
57799;BME280;43626;53.866;30.298;2023-07-31T06:30:59;1016.4;;;21.9;61.1
57799;BME280;43626;53.866;30.298;2023-07-31T06:35:47;1016.3;;;21.9;60.8
57799;BME280;43626;53.866;30.298;2023-07-31T06:40:19;1016.3;;;21.8;60.9
57799;BME280;43626;53.866;30.298;2023-07-31T06:45:33;1016.4;;;21.8;60.7
57799;BME280;43626;53.866;30.298;2023-07-31T06:51:00;1016.4;;;22;61.1
57799;BME280;43626;53.866;30.298;2023-07-31T06:55:59;1016.4;;;22.1;61.6
57799;BME280;43626;53.866;30.298;2023-07-31T07:00:59;1016.3;;;22.3;60.9
57799;BME280;43626;53.866;30.298;2023-07-31T07:05:59;1016.3;;;22.3;60.2
57799;BME280;43626;53.866;30.298;2023-07-31T07:10:47;1016.4;;;22.6;59
57799;BME280;43626;53.866;30.298;2023-07-31T07:15:27;1016.4;;;23;57.8
57799;BME280;43626;53.866;30.298;2023-07-31T07:20:47;1016.3;;;23.1;57.5
57799;BME280;43626;53.866;30.298;2023-07-31T07:25:59;1016.3;;;23.1;56.9
57799;BME280;43626;53.866;30.298;2023-07-31T07:30:43;1016.3;;;23;57
57799;BME280;43626;53.866;30.298;2023-07-31T07:35:19;1016.2;;;23;56.4
57799;BME280;43626;53.866;30.298;2023-07-31T07:40:59;1016.2;;;23;56.1
57799;BME280;43626;53.866;30.298;2023-07-31T07:45:59;1016.3;;;23.1;55.2
57799;BME280;43626;53.866;30.298;2023-07-31T07:50:27;1016.3;;;23.1;55.4
57799;BME280;43626;53.866;30.298;2023-07-31T07:55:31;1016.3;;;23.2;55.2
57799;BME280;43626;53.866;30.298;2023-07-31T08:00:33;1016.3;;;23.6;53.4
57799;BME280;43626;53.866;30.298;2023-07-31T08:05:43;1016.3;;;24;52.4
57799;BME280;43626;53.866;30.298;2023-07-31T08:10:47;1016.3;;;24.2;52.3
57799;BME280;43626;53.866;30.298;2023-07-31T08:15:37;1016.3;;;24.1;52.4
57799;BME280;43626;53.866;30.298;2023-07-31T08:20:49;1016.4;;;24;53.2
57799;BME280;43626;53.866;30.298;2023-07-31T08:25:19;1016.3;;;23.8;53.4
57799;BME280;43626;53.866;30.298;2023-07-31T08:30:31;1016.3;;;23.9;53.1
57799;BME280;43626;53.866;30.298;2023-07-31T08:35:33;1016.3;;;24.1;52.6
57799;BME280;43626;53.866;30.298;2023-07-31T08:40:31;1016.3;;;24.3;52.7
57799;BME280;43626;53.866;30.298;2023-07-31T08:45:59;1016.3;;;24.4;50
57799;BME280;43626;53.866;30.298;2023-07-31T08:50:19;1016.3;;;24.2;50.6
57799;BME280;43626;53.866;30.298;2023-07-31T08:55:19;1016.3;;;23.9;50.9
57799;BME280;43626;53.866;30.298;2023-07-31T09:00:21;1016.3;;;23.8;50.3
57799;BME280;43626;53.866;30.298;2023-07-31T09:05:31;1016.3;;;23.7;51.4
57799;BME280;43626;53.866;30.298;2023-07-31T09:10:19;1016.3;;;23.5;51.7
57799;BME280;43626;53.866;30.298;2023-07-31T09:15:37;1016.4;;;23.4;51.6
57799;BME280;43626;53.866;30.298;2023-07-31T09:20:59;1016.4;;;23.4;51.8
57799;BME280;43626;53.866;30.298;2023-07-31T09:25:27;1016.4;;;23.6;51.5
57799;BME280;43626;53.866;30.298;2023-07-31T09:30:45;1016.3;;;23.6;51.3
57799;BME280;43626;53.866;30.298;2023-07-31T09:35:59;1016.3;;;23.7;50.4
57799;BME280;43626;53.866;30.298;2023-07-31T09:40:49;1016.3;;;24;51.1
57799;BME280;43626;53.866;30.298;2023-07-31T09:45:34;1016.3;;;24.3;49.6
57799;BME280;43626;53.866;30.298;2023-07-31T09:50:33;1016.3;;;24.6;48.7
57799;BME280;43626;53.866;30.298;2023-07-31T09:56:01;1016.2;;;25;48.1
57799;BME280;43626;53.866;30.298;2023-07-31T10:00:19;1016.2;;;25;46.3
57799;BME280;43626;53.866;30.298;2023-07-31T10:05:19;1016.2;;;24.7;46.9
57799;BME280;43626;53.866;30.298;2023-07-31T10:11:01;1016.3;;;24.5;47.2
57799;BME280;43626;53.866;30.298;2023-07-31T10:15:51;1016.3;;;24.5;47.8
57799;BME280;43626;53.866;30.298;2023-07-31T10:21:01;1016.2;;;24.8;46.9
57799;BME280;43626;53.866;30.298;2023-07-31T10:25:37;1016.2;;;25;46.6
57799;BME280;43626;53.866;30.298;2023-07-31T10:30:21;1016.2;;;25;46.5
57799;BME280;43626;53.866;30.298;2023-07-31T10:35:19;1016.2;;;25.1;45.6
57799;BME280;43626;53.866;30.298;2023-07-31T10:41:07;1016.1;;;24.9;46.3
57799;BME280;43626;53.866;30.298;2023-07-31T10:45:47;1016.1;;;24.8;47
57799;BME280;43626;53.866;30.298;2023-07-31T10:50:51;1016.1;;;25.1;46
57799;BME280;43626;53.866;30.298;2023-07-31T10:55:59;1016.1;;;25.3;44.3
57799;BME280;43626;53.866;30.298;2023-07-31T11:00:47;1016.1;;;25.5;44.4
57799;BME280;43626;53.866;30.298;2023-07-31T11:05:26;1016.1;;;25.6;44.2
57799;BME280;43626;53.866;30.298;2023-07-31T11:10:31;1016.2;;;25.5;43.8
57799;BME280;43626;53.866;30.298;2023-07-31T11:15:59;1016.2;;;25.4;43.5
57799;BME280;43626;53.866;30.298;2023-07-31T11:20:59;1016.2;;;25.4;43.5
57799;BME280;43626;53.866;30.298;2023-07-31T11:25:59;1016.2;;;25.4;43.5
57799;BME280;43626;53.866;30.298;2023-07-31T11:30:59;1016.1;;;25.6;42.9
57799;BME280;43626;53.866;30.298;2023-07-31T11:35:48;1016.1;;;25.8;41.7
57799;BME280;43626;53.866;30.298;2023-07-31T11:40:40;1016.1;;;26;40.1
57799;BME280;43626;53.866;30.298;2023-07-31T11:46:01;1016.1;;;26.2;40.3
57799;BME280;43626;53.866;30.298;2023-07-31T11:51:02;1016.1;;;26.4;40
57799;BME280;43626;53.866;30.298;2023-07-31T11:55:45;1016.1;;;26.6;39.8
57799;BME280;43626;53.866;30.298;2023-07-31T12:00:31;1016;;;26.5;39.3
57799;BME280;43626;53.866;30.298;2023-07-31T12:06:01;1016;;;26.7;39.3
57799;BME280;43626;53.866;30.298;2023-07-31T12:10:35;1015.9;;;26.9;38.7
57799;BME280;43626;53.866;30.298;2023-07-31T12:15:28;1015.9;;;27.1;38
57799;BME280;43626;53.866;30.298;2023-07-31T12:20:27;1015.9;;;27.3;37.4
57799;BME280;43626;53.866;30.298;2023-07-31T12:25:33;1015.9;;;27.3;36.8
57799;BME280;43626;53.866;30.298;2023-07-31T12:30:40;1015.9;;;27.4;36.7
57799;BME280;43626;53.866;30.298;2023-07-31T12:35:47;1015.9;;;27.5;35.4
57799;BME280;43626;53.866;30.298;2023-07-31T12:41:03;1015.8;;;27.5;34
57799;BME280;43626;53.866;30.298;2023-07-31T12:45:35;1015.8;;;27.4;34.3
57799;BME280;43626;53.866;30.298;2023-07-31T12:50:20;1015.8;;;27.4;34.5
57799;BME280;43626;53.866;30.298;2023-07-31T12:55:47;1015.8;;;27.4;34.5
57799;BME280;43626;53.866;30.298;2023-07-31T13:00:49;1015.7;;;27.6;34.7
57799;BME280;43626;53.866;30.298;2023-07-31T13:05:47;1015.7;;;27.7;33.8
57799;BME280;43626;53.866;30.298;2023-07-31T13:11:03;1015.7;;;27.8;33.4
57799;BME280;43626;53.866;30.298;2023-07-31T13:15:37;1015.7;;;27.9;33.2
57799;BME280;43626;53.866;30.298;2023-07-31T13:20:23;1015.6;;;27.9;33.5
57799;BME280;43626;53.866;30.298;2023-07-31T13:25:47;1015.6;;;28;33.5
57799;BME280;43626;53.866;30.298;2023-07-31T13:30:31;1015.6;;;28;32.9
57799;BME280;43626;53.866;30.298;2023-07-31T13:35:37;1015.5;;;28.1;32.6
57799;BME280;43626;53.866;30.298;2023-07-31T13:40:53;1015.5;;;28.3;32.7
57799;BME280;43626;53.866;30.298;2023-07-31T13:46:03;1015.5;;;28.3;33
57799;BME280;43626;53.866;30.298;2023-07-31T13:50:19;1015.4;;;28.4;32.8
57799;BME280;43626;53.866;30.298;2023-07-31T13:55:37;1015.4;;;28.6;33
57799;BME280;43626;53.866;30.298;2023-07-31T14:01:03;1015.3;;;28.8;32.5
57799;BME280;43626;53.866;30.298;2023-07-31T14:05:31;1015.3;;;28.7;32.4
57799;BME280;43626;53.866;30.298;2023-07-31T14:10:37;1015.3;;;28.5;32.2
57799;BME280;43626;53.866;30.298;2023-07-31T14:15:37;1015.3;;;28.6;32.6
57799;BME280;43626;53.866;30.298;2023-07-31T14:20:53;1015.3;;;28.7;32.5
57799;BME280;43626;53.866;30.298;2023-07-31T14:25:20;1015.3;;;28.9;32.8
57799;BME280;43626;53.866;30.298;2023-07-31T14:30:23;1015.3;;;29.2;32.1
57799;BME280;43626;53.866;30.298;2023-07-31T14:36:03;1015.2;;;29.3;32.3
57799;BME280;43626;53.866;30.298;2023-07-31T14:40:53;1015.2;;;29.4;31.8
57799;BME280;43626;53.866;30.298;2023-07-31T14:46:04;1015.3;;;29.6;32.1
57799;BME280;43626;53.866;30.298;2023-07-31T14:50:37;1015.2;;;29.9;32
57799;BME280;43626;53.866;30.298;2023-07-31T14:55:19;1015.3;;;30.1;31.8
57799;BME280;43626;53.866;30.298;2023-07-31T15:00:23;1015.3;;;30.1;31.7
57799;BME280;43626;53.866;30.298;2023-07-31T15:06:03;1015.2;;;30.3;31.8
57799;BME280;43626;53.866;30.298;2023-07-31T15:10:47;1015.3;;;30;32
57799;BME280;43626;53.866;30.298;2023-07-31T15:15:53;1015.4;;;29.7;32.3
57799;BME280;43626;53.866;30.298;2023-07-31T15:21:03;1015.4;;;29.1;33.4
57799;BME280;43626;53.866;30.298;2023-07-31T15:25:47;1015.4;;;28.9;33.6
57799;BME280;43626;53.866;30.298;2023-07-31T15:30:33;1015.4;;;29.1;33.3
57799;BME280;43626;53.866;30.298;2023-07-31T15:35:33;1015.5;;;29.2;34.1
57799;BME280;43626;53.866;30.298;2023-07-31T15:41:03;1015.5;;;29.5;34.2
57799;BME280;43626;53.866;30.298;2023-07-31T15:46:01;1015.5;;;29.7;32.8
57799;BME280;43626;53.866;30.298;2023-07-31T15:51:03;1015.5;;;29.8;32.7
57799;BME280;43626;53.866;30.298;2023-07-31T15:56:03;1015.5;;;29.8;32.8
57799;BME280;43626;53.866;30.298;2023-07-31T16:00:39;1015.5;;;29.8;32.9
57799;BME280;43626;53.866;30.298;2023-07-31T16:05:27;1015.5;;;30.1;33.1
57799;BME280;43626;53.866;30.298;2023-07-31T16:10:47;1015.6;;;30.4;32.6
57799;BME280;43626;53.866;30.298;2023-07-31T16:16:03;1015.5;;;30.4;32.5
57799;BME280;43626;53.866;30.298;2023-07-31T16:20:47;1015.5;;;29.9;32.4
57799;BME280;43626;53.866;30.298;2023-07-31T16:25:37;1015.5;;;29.4;33.7
57799;BME280;43626;53.866;30.298;2023-07-31T16:31:03;1015.5;;;29.1;34.2
57799;BME280;43626;53.866;30.298;2023-07-31T16:35:19;1015.5;;;29;34.6
57799;BME280;43626;53.866;30.298;2023-07-31T16:40:23;1015.5;;;29.1;34.7
57799;BME280;43626;53.866;30.298;2023-07-31T16:45:29;1015.5;;;29;34.4
57799;BME280;43626;53.866;30.298;2023-07-31T16:50:46;1015.6;;;28.7;35.2
57799;BME280;43626;53.866;30.298;2023-07-31T16:55:47;1015.6;;;28.3;36.5
57799;BME280;43626;53.866;30.298;2023-07-31T17:00:29;1015.6;;;27.8;38
57799;BME280;43626;53.866;30.298;2023-07-31T17:05:19;1015.6;;;27.4;39.6
57799;BME280;43626;53.866;30.298;2023-07-31T17:10:19;1015.6;;;27;41
57799;BME280;43626;53.866;30.298;2023-07-31T17:15:23;1015.6;;;26.6;43.5
57799;BME280;43626;53.866;30.298;2023-07-31T17:20:30;1015.7;;;26.2;45.2
57799;BME280;43626;53.866;30.298;2023-07-31T17:25:19;1015.7;;;25.8;45.8
57799;BME280;43626;53.866;30.298;2023-07-31T17:30:47;1015.8;;;25.5;46.8
57799;BME280;43626;53.866;30.298;2023-07-31T17:36:03;1015.8;;;25.3;47.1
57799;BME280;43626;53.866;30.298;2023-07-31T17:40:38;1015.9;;;25;47.4
57799;BME280;43626;53.866;30.298;2023-07-31T17:45:19;1015.9;;;24.8;48.1
57799;BME280;43626;53.866;30.298;2023-07-31T17:50:49;1016;;;24.6;49
57799;BME280;43626;53.866;30.298;2023-07-31T17:55:23;1016;;;24.4;49.8
57799;BME280;43626;53.866;30.298;2023-07-31T18:00:23;1016.1;;;24.2;50.3
57799;BME280;43626;53.866;30.298;2023-07-31T18:05:55;1016.1;;;24;50.8
57799;BME280;43626;53.866;30.298;2023-07-31T18:11:05;1016.1;;;23.8;52
57799;BME280;43626;53.866;30.298;2023-07-31T18:15:31;1016.3;;;23.5;52.9
57799;BME280;43626;53.866;30.298;2023-07-31T18:20:19;1016.4;;;23.1;53.2
57799;BME280;43626;53.866;30.298;2023-07-31T18:25:39;1016.4;;;23;53.3
57799;BME280;43626;53.866;30.298;2023-07-31T18:30:49;1016.4;;;22.9;53.6
57799;BME280;43626;53.866;30.298;2023-07-31T18:35:23;1016.4;;;22.9;52.7
57799;BME280;43626;53.866;30.298;2023-07-31T18:40:19;1016.4;;;22.9;52.2
57799;BME280;43626;53.866;30.298;2023-07-31T18:45:55;1016.3;;;22.9;52
57799;BME280;43626;53.866;30.298;2023-07-31T18:50:19;1016.3;;;22.9;52
57799;BME280;43626;53.866;30.298;2023-07-31T18:55:19;1016.3;;;22.9;52.4
57799;BME280;43626;53.866;30.298;2023-07-31T19:01:05;1016.3;;;22.9;52.7
57799;BME280;43626;53.866;30.298;2023-07-31T19:05:59;1016.3;;;22.9;53.2
57799;BME280;43626;53.866;30.298;2023-07-31T19:10:19;1016.4;;;22.9;54.1
57799;BME280;43626;53.866;30.298;2023-07-31T19:15:35;1016.3;;;22.8;54.7
57799;BME280;43626;53.866;30.298;2023-07-31T19:21:03;1016.3;;;22.7;55.3
57799;BME280;43626;53.866;30.298;2023-07-31T19:25:23;1016.3;;;22.7;56
57799;BME280;43626;53.866;30.298;2023-07-31T19:30:31;1016.4;;;22.6;56.1
57799;BME280;43626;53.866;30.298;2023-07-31T19:35:53;1016.4;;;22.5;55.5
57799;BME280;43626;53.866;30.298;2023-07-31T19:40:57;1016.4;;;22.5;55.7
57799;BME280;43626;53.866;30.298;2023-07-31T19:46:05;1016.4;;;22.4;56
57799;BME280;43626;53.866;30.298;2023-07-31T19:50:23;1016.4;;;22.4;56.3
57799;BME280;43626;53.866;30.298;2023-07-31T19:55:23;1016.5;;;22.3;56.4
57799;BME280;43626;53.866;30.298;2023-07-31T20:00:19;1016.5;;;22.2;56.5
57799;BME280;43626;53.866;30.298;2023-07-31T20:06:03;1016.5;;;22;57.1
57799;BME280;43626;53.866;30.298;2023-07-31T20:11:05;1016.6;;;21.8;57.6
57799;BME280;43626;53.866;30.298;2023-07-31T20:16:06;1016.5;;;21.7;58.2
57799;BME280;43626;53.866;30.298;2023-07-31T20:21:05;1016.5;;;21.6;58.6
57799;BME280;43626;53.866;30.298;2023-07-31T20:25:49;1016.5;;;21.6;58.6
57799;BME280;43626;53.866;30.298;2023-07-31T20:30:19;1016.5;;;21.6;58.8
57799;BME280;43626;53.866;30.298;2023-07-31T20:35:49;1016.5;;;21.5;58.9
57799;BME280;43626;53.866;30.298;2023-07-31T20:41:03;1016.5;;;21.4;59.1
57799;BME280;43626;53.866;30.298;2023-07-31T20:46:05;1016.4;;;21.3;59.3
57799;BME280;43626;53.866;30.298;2023-07-31T20:50:37;1016.4;;;21.2;59.6
57799;BME280;43626;53.866;30.298;2023-07-31T20:56:05;1016.4;;;21.1;60.3
57799;BME280;43626;53.866;30.298;2023-07-31T21:00:19;1016.4;;;21.1;60.7
57799;BME280;43626;53.866;30.298;2023-07-31T21:05:31;1016.4;;;21;61
57799;BME280;43626;53.866;30.298;2023-07-31T21:10:31;1016.4;;;20.9;61.2
57799;BME280;43626;53.866;30.298;2023-07-31T21:15:39;1016.5;;;20.8;61.3
57799;BME280;43626;53.866;30.298;2023-07-31T21:20:47;1016.6;;;20.7;61.5
57799;BME280;43626;53.866;30.298;2023-07-31T21:25:49;1016.5;;;20.6;62
57799;BME280;43626;53.866;30.298;2023-07-31T21:30:19;1016.5;;;20.6;62
57799;BME280;43626;53.866;30.298;2023-07-31T21:35:19;1016.5;;;20.5;61.8
57799;BME280;43626;53.866;30.298;2023-07-31T21:40:19;1016.5;;;20.5;61.9
57799;BME280;43626;53.866;30.298;2023-07-31T21:45:49;1016.5;;;20.4;61.9
57799;BME280;43626;53.866;30.298;2023-07-31T21:50:37;1016.5;;;20.4;62.2
57799;BME280;43626;53.866;30.298;2023-07-31T21:55:47;1016.5;;;20.3;62.3
57799;BME280;43626;53.866;30.298;2023-07-31T22:01:05;1016.5;;;20.2;62.3
57799;BME280;43626;53.866;30.298;2023-07-31T22:05:39;1016.5;;;20.2;62.3
57799;BME280;43626;53.866;30.298;2023-07-31T22:10:19;1016.4;;;20.1;62.7
57799;BME280;43626;53.866;30.298;2023-07-31T22:15:47;1016.4;;;20;62.4
57799;BME280;43626;53.866;30.298;2023-07-31T22:20:31;1016.4;;;19.9;62.5
57799;BME280;43626;53.866;30.298;2023-07-31T22:25:19;1016.4;;;19.8;62.6
57799;BME280;43626;53.866;30.298;2023-07-31T22:30:51;1016.4;;;19.8;62.4
57799;BME280;43626;53.866;30.298;2023-07-31T22:36:05;1016.5;;;19.8;62.3
57799;BME280;43626;53.866;30.298;2023-07-31T22:40:19;1016.5;;;19.7;62.2
57799;BME280;43626;53.866;30.298;2023-07-31T22:45:19;1016.5;;;19.6;62.5
57799;BME280;43626;53.866;30.298;2023-07-31T22:51:05;1016.5;;;19.5;62.9
57799;BME280;43626;53.866;30.298;2023-07-31T22:55:31;1016.5;;;19.5;62.9
57799;BME280;43626;53.866;30.298;2023-07-31T23:00:37;1016.5;;;19.4;62.8
57799;BME280;43626;53.866;30.298;2023-07-31T23:05:39;1016.5;;;19.4;62.9
57799;BME280;43626;53.866;30.298;2023-07-31T23:10:55;1016.4;;;19.4;62.6
57799;BME280;43626;53.866;30.298;2023-07-31T23:15:49;1016.4;;;19.3;62.3
57799;BME280;43626;53.866;30.298;2023-07-31T23:20:35;1016.4;;;19.3;62.7
57799;BME280;43626;53.866;30.298;2023-07-31T23:26:01;1016.5;;;19.2;62.6
57799;BME280;43626;53.866;30.298;2023-07-31T23:31:00;1016.5;;;19.2;62.5
57799;BME280;43626;53.866;30.298;2023-07-31T23:35:37;1016.5;;;19.1;62.4
57799;BME280;43626;53.866;30.298;2023-07-31T23:40:19;1016.5;;;19;63
57799;BME280;43626;53.866;30.298;2023-07-31T23:46:05;1016.5;;;18.9;64
57799;BME280;43626;53.866;30.298;2023-07-31T23:50:19;1016.4;;;18.8;64.1
57799;BME280;43626;53.866;30.298;2023-07-31T23:56:05;1016.4;;;18.8;64.2
